createdAt,value
2018-01-30T00:01:46.551Z,6.50
2018-01-30T00:04:16.393Z,6.40
2018-01-30T00:06:45.710Z,6.40
2018-01-30T00:09:15.754Z,6.50
2018-01-30T00:11:46.009Z,6.50
2018-01-30T00:14:15.458Z,6.40
2018-01-30T00:16:47.307Z,6.40
2018-01-30T00:19:16.814Z,6.50
2018-01-30T00:21:46.100Z,6.40
2018-01-30T00:24:16.702Z,6.40
2018-01-30T00:26:45.828Z,6.40
2018-01-30T00:29:15.089Z,6.40
2018-01-30T00:31:44.275Z,6.40
2018-01-30T00:34:13.553Z,6.40
2018-01-30T00:36:44.400Z,6.40
2018-01-30T00:39:17.564Z,6.30
2018-01-30T00:41:47.825Z,6.30
2018-01-30T00:44:19.948Z,6.30
2018-01-30T00:46:49.148Z,6.30
2018-01-30T00:49:18.646Z,6.20
2018-01-30T00:51:49.304Z,6.20
2018-01-30T00:54:28.301Z,6.20
2018-01-30T00:56:59.375Z,6.20
2018-01-30T00:59:29.902Z,6.20
2018-01-30T01:02:01.034Z,6.20
2018-01-30T01:04:30.117Z,6.20
2018-01-30T01:06:59.283Z,6.20
2018-01-30T01:09:29.386Z,6.10
2018-01-30T01:12:00.045Z,6.10
2018-01-30T01:14:31.675Z,6.00
2018-01-30T01:17:03.888Z,6.00
2018-01-30T01:19:34.136Z,6.10
2018-01-30T01:22:05.817Z,6.00
2018-01-30T01:24:35.656Z,6.00
2018-01-30T01:27:05.706Z,5.90
2018-01-30T01:29:36.257Z,5.80
2018-01-30T01:32:06.418Z,5.80
2018-01-30T01:34:36.454Z,5.80
2018-01-30T01:37:07.751Z,5.80
2018-01-30T01:39:38.451Z,5.70
2018-01-30T01:42:08.044Z,5.70
2018-01-30T01:44:41.007Z,5.70
2018-01-30T01:47:10.792Z,5.70
2018-01-30T01:49:41.785Z,5.70
2018-01-30T01:52:12.470Z,5.70
2018-01-30T01:54:42.136Z,5.70
2018-01-30T01:57:11.847Z,5.60
2018-01-30T01:59:41.691Z,5.60
2018-01-30T02:02:13.714Z,5.60
2018-01-30T02:04:50.501Z,5.60
2018-01-30T02:07:20.767Z,5.60
2018-01-30T02:09:51.658Z,5.60
2018-01-30T02:12:22.108Z,5.60
2018-01-30T02:14:53.626Z,5.50
2018-01-30T02:17:26.397Z,5.50
2018-01-30T02:19:56.056Z,5.50
2018-01-30T02:22:27.466Z,5.50
2018-01-30T02:24:58.613Z,5.50
2018-01-30T02:27:28.616Z,5.40
2018-01-30T02:29:58.008Z,5.40
2018-01-30T02:32:28.761Z,5.40
2018-01-30T02:34:58.574Z,5.40
2018-01-30T02:37:27.958Z,5.50
2018-01-30T02:40:00.499Z,5.50
2018-01-30T02:42:29.862Z,5.50
2018-01-30T02:44:59.326Z,5.50
2018-01-30T02:47:29.295Z,5.50
2018-01-30T02:50:00.591Z,5.50
2018-01-30T02:52:30.197Z,5.50
2018-01-30T02:54:59.950Z,5.40
2018-01-30T02:57:29.172Z,5.40
2018-01-30T02:59:59.172Z,5.40
2018-01-30T03:02:28.460Z,5.30
2018-01-30T03:04:59.126Z,5.40
2018-01-30T03:07:28.464Z,5.40
2018-01-30T03:09:58.203Z,5.30
2018-01-30T03:12:27.761Z,5.30
2018-01-30T03:14:56.998Z,5.30
2018-01-30T03:17:26.205Z,5.30
2018-01-30T03:19:55.884Z,5.30
2018-01-30T03:22:25.795Z,5.20
2018-01-30T03:24:54.979Z,5.20
2018-01-30T03:27:24.611Z,5.20
2018-01-30T03:29:54.114Z,5.20
2018-01-30T03:32:23.961Z,5.20
2018-01-30T03:34:53.154Z,5.30
2018-01-30T03:37:30.065Z,5.20
2018-01-30T03:39:59.799Z,5.10
2018-01-30T03:42:30.287Z,5.20
2018-01-30T03:44:59.767Z,5.10
2018-01-30T03:47:29.487Z,5.20
2018-01-30T03:50:01.361Z,5.10
2018-01-30T03:52:31.336Z,5.10
2018-01-30T03:55:01.535Z,5.10
2018-01-30T03:57:32.981Z,5.10
2018-01-30T04:00:02.772Z,5.10
2018-01-30T04:02:32.053Z,5.00
2018-01-30T04:05:01.197Z,5.10
2018-01-30T04:07:30.470Z,5.10
2018-01-30T04:10:00.111Z,5.10
2018-01-30T04:12:29.803Z,5.00
2018-01-30T04:14:59.110Z,5.00
2018-01-30T04:17:28.171Z,5.00
2018-01-30T04:19:59.778Z,5.00
2018-01-30T04:22:28.955Z,5.00
2018-01-30T04:24:57.903Z,5.00
2018-01-30T04:27:27.094Z,5.00
2018-01-30T04:29:56.342Z,5.00
2018-01-30T04:32:26.982Z,4.90
2018-01-30T04:34:56.261Z,4.90
2018-01-30T04:37:25.458Z,4.90
2018-01-30T04:39:55.457Z,4.90
2018-01-30T04:42:24.603Z,4.90
2018-01-30T04:44:54.961Z,4.90
2018-01-30T04:47:24.289Z,4.90
2018-01-30T04:49:53.845Z,4.90
2018-01-30T04:52:23.636Z,4.90
2018-01-30T04:54:52.573Z,4.80
2018-01-30T04:57:21.629Z,4.80
2018-01-30T04:59:50.801Z,4.80
2018-01-30T05:02:20.293Z,4.90
2018-01-30T05:04:49.329Z,4.90
2018-01-30T05:07:19.214Z,4.90
2018-01-30T05:09:48.368Z,4.90
2018-01-30T05:12:17.500Z,4.90
2018-01-30T05:14:47.129Z,4.90
2018-01-30T05:17:16.431Z,4.90
2018-01-30T05:19:46.443Z,4.90
2018-01-30T05:22:15.783Z,4.90
2018-01-30T05:24:44.876Z,4.90
2018-01-30T05:27:13.883Z,4.90
2018-01-30T05:29:43.418Z,4.80
2018-01-30T05:32:13.207Z,4.80
2018-01-30T05:34:42.478Z,4.80
2018-01-30T05:37:11.838Z,4.80
2018-01-30T05:39:40.875Z,4.80
2018-01-30T05:42:10.327Z,4.80
2018-01-30T05:44:39.503Z,4.80
2018-01-30T05:47:08.748Z,4.80
2018-01-30T05:49:38.719Z,4.70
2018-01-30T05:52:08.292Z,4.70
2018-01-30T05:54:37.635Z,4.70
2018-01-30T05:57:06.810Z,4.70
2018-01-30T05:59:35.924Z,4.70
2018-01-30T06:02:05.602Z,4.70
2018-01-30T06:04:34.626Z,4.70
2018-01-30T06:07:03.814Z,4.70
2018-01-30T06:09:32.775Z,4.60
2018-01-30T06:12:02.908Z,4.70
2018-01-30T06:14:32.633Z,4.60
2018-01-30T06:17:02.128Z,4.60
2018-01-30T06:19:31.702Z,4.70
2018-01-30T06:22:01.750Z,4.60
2018-01-30T06:24:30.945Z,4.60
2018-01-30T06:27:01.480Z,4.70
2018-01-30T06:29:31.810Z,4.70
2018-01-30T06:32:02.070Z,4.70
2018-01-30T06:34:32.134Z,4.80
2018-01-30T06:37:02.383Z,4.80
2018-01-30T06:39:31.846Z,4.80
2018-01-30T06:42:01.832Z,4.80
2018-01-30T06:44:31.997Z,4.80
2018-01-30T06:47:01.126Z,4.70
2018-01-30T06:49:30.822Z,4.80
2018-01-30T06:52:00.241Z,4.80
2018-01-30T06:54:34.764Z,4.80
2018-01-30T06:57:04.321Z,4.70
2018-01-30T06:59:34.904Z,4.70
2018-01-30T07:02:04.087Z,4.70
2018-01-30T07:04:33.827Z,4.80
2018-01-30T07:07:03.319Z,4.70
2018-01-30T07:09:32.802Z,4.70
2018-01-30T07:12:36.421Z,4.70
2018-01-30T07:15:05.857Z,4.70
2018-01-30T07:17:36.221Z,4.80
2018-01-30T07:20:05.797Z,4.70
2018-01-30T07:22:35.034Z,4.80
2018-01-30T07:25:04.377Z,4.80
2018-01-30T07:27:33.998Z,4.70
2018-01-30T07:30:04.158Z,4.70
2018-01-30T07:32:33.380Z,4.80
2018-01-30T07:35:02.400Z,4.70
2018-01-30T07:37:31.684Z,4.70
2018-01-30T07:40:02.082Z,4.70
2018-01-30T07:42:35.240Z,4.70
2018-01-30T07:45:04.943Z,4.80
2018-01-30T07:47:35.141Z,4.80
2018-01-30T07:50:04.786Z,4.80
2018-01-30T07:52:36.276Z,4.80
2018-01-30T07:55:07.775Z,4.80
2018-01-30T07:57:37.426Z,4.80
2018-01-30T08:00:07.631Z,4.90
2018-01-30T08:02:38.973Z,5.00
2018-01-30T08:05:09.784Z,5.00
2018-01-30T08:07:40.292Z,5.00
2018-01-30T08:10:09.682Z,5.00
2018-01-30T08:12:40.505Z,5.00
2018-01-30T08:15:10.536Z,5.10
2018-01-30T08:17:40.660Z,5.10
2018-01-30T08:20:10.361Z,5.10
2018-01-30T08:22:41.590Z,5.20
2018-01-30T08:25:11.546Z,5.20
2018-01-30T08:27:40.945Z,5.20
2018-01-30T08:30:10.280Z,5.20
2018-01-30T08:32:39.638Z,5.20
2018-01-30T08:35:08.668Z,5.20
2018-01-30T08:37:37.875Z,5.40
2018-01-30T08:40:09.414Z,5.50
2018-01-30T08:42:39.107Z,5.50
2018-01-30T08:45:08.670Z,5.60
2018-01-30T08:47:37.951Z,5.70
2018-01-30T08:50:07.909Z,5.70
2018-01-30T08:52:40.615Z,5.70
2018-01-30T08:55:10.235Z,5.80
2018-01-30T08:57:42.699Z,5.90
2018-01-30T09:00:15.293Z,5.90
2018-01-30T09:02:45.566Z,6.00
2018-01-30T09:05:14.613Z,6.10
2018-01-30T09:07:44.594Z,6.10
2018-01-30T09:10:14.178Z,6.10
2018-01-30T09:12:44.019Z,6.20
2018-01-30T09:15:13.277Z,6.10
2018-01-30T09:17:42.966Z,6.20
2018-01-30T09:20:13.150Z,6.10
2018-01-30T09:22:42.637Z,6.10
2018-01-30T09:25:12.494Z,6.10
2018-01-30T09:27:42.759Z,6.20
2018-01-30T09:30:12.084Z,6.20
2018-01-30T09:32:49.160Z,6.20
2018-01-30T09:35:25.573Z,6.20
2018-01-30T09:38:01.974Z,6.20
2018-01-30T09:40:37.065Z,6.20
2018-01-30T09:43:08.304Z,6.40
2018-01-30T09:45:37.614Z,6.30
2018-01-30T09:48:07.020Z,6.40
2018-01-30T09:50:36.434Z,6.40
2018-01-30T09:53:05.795Z,6.50
2018-01-30T09:55:39.659Z,6.60
2018-01-30T09:58:09.557Z,6.70
2018-01-30T10:00:39.693Z,6.70
2018-01-30T10:03:09.667Z,6.80
2018-01-30T10:05:39.155Z,6.70
2018-01-30T10:08:10.083Z,6.80
2018-01-30T10:10:39.570Z,6.90
2018-01-30T10:13:09.431Z,7.00
2018-01-30T10:15:39.012Z,7.00
2018-01-30T10:18:09.272Z,7.00
2018-01-30T10:20:38.891Z,7.00
2018-01-30T10:23:10.390Z,7.10
2018-01-30T10:25:40.584Z,7.10
2018-01-30T10:28:10.026Z,7.10
2018-01-30T10:30:39.528Z,7.30
2018-01-30T10:33:15.724Z,7.50
2018-01-30T10:35:52.937Z,7.70
2018-01-30T10:38:28.584Z,7.70
2018-01-30T10:41:07.333Z,7.70
2018-01-30T10:43:52.528Z,7.80
2018-01-30T10:46:22.427Z,7.80
2018-01-30T10:48:58.601Z,7.90
2018-01-30T10:51:29.817Z,7.90
2018-01-30T10:54:00.478Z,8.00
2018-01-30T10:56:32.820Z,8.10
2018-01-30T10:59:02.436Z,8.30
2018-01-30T11:01:32.792Z,8.30
2018-01-30T11:04:02.330Z,8.30
2018-01-30T11:06:34.046Z,8.40
2018-01-30T11:09:05.195Z,8.40
2018-01-30T11:11:34.710Z,8.50
2018-01-30T11:14:04.606Z,8.50
2018-01-30T11:16:34.091Z,8.60
2018-01-30T11:19:03.691Z,8.80
2018-01-30T11:21:33.189Z,8.70
2018-01-30T11:24:06.127Z,8.40
2018-01-30T11:26:36.494Z,8.40
2018-01-30T11:29:06.068Z,8.30
2018-01-30T11:31:41.760Z,8.20
2018-01-30T11:34:16.298Z,8.30
2018-01-30T11:36:45.675Z,8.50
2018-01-30T11:39:15.184Z,8.70
2018-01-30T11:41:45.116Z,8.70
2018-01-30T11:44:16.243Z,8.80
2018-01-30T11:46:45.784Z,9.10
2018-01-30T11:49:15.655Z,9.00
2018-01-30T11:51:51.020Z,9.20
2018-01-30T11:54:26.012Z,9.50
2018-01-30T11:56:56.768Z,9.80
2018-01-30T11:59:27.626Z,10.00
2018-01-30T12:01:57.092Z,10.00
2018-01-30T12:04:27.579Z,9.90
2018-01-30T12:06:57.296Z,9.90
2018-01-30T12:09:26.886Z,10.20
2018-01-30T12:11:56.823Z,10.10
2018-01-30T12:14:26.761Z,9.70
2018-01-30T12:16:56.358Z,9.70
2018-01-30T12:19:30.188Z,9.50
2018-01-30T12:22:02.250Z,9.40
2018-01-30T12:24:41.486Z,9.40
2018-01-30T12:27:21.786Z,9.50
2018-01-30T12:29:52.963Z,9.40
2018-01-30T12:32:28.767Z,9.30
2018-01-30T12:35:05.746Z,9.40
2018-01-30T12:37:35.950Z,9.60
2018-01-30T12:40:05.647Z,9.70
2018-01-30T12:42:41.031Z,9.60
2018-01-30T12:45:14.739Z,9.50
2018-01-30T12:47:46.315Z,9.60
2018-01-30T12:50:15.934Z,9.50
2018-01-30T12:52:46.188Z,9.70
2018-01-30T12:55:16.453Z,9.80
2018-01-30T12:57:47.016Z,10.00
2018-01-30T13:00:16.950Z,10.00
2018-01-30T13:02:51.567Z,10.10
2018-01-30T13:05:21.023Z,10.70
2018-01-30T13:07:50.902Z,11.00
2018-01-30T13:10:22.616Z,11.10
2018-01-30T13:12:52.413Z,11.10
2018-01-30T13:15:23.151Z,10.80
2018-01-30T13:17:54.463Z,10.60
2018-01-30T13:20:25.739Z,10.60
2018-01-30T13:22:55.526Z,11.00
2018-01-30T13:25:26.014Z,11.70
2018-01-30T13:27:56.487Z,12.70
2018-01-30T13:30:26.803Z,12.70
2018-01-30T13:32:58.086Z,13.30
2018-01-30T13:35:27.479Z,14.00
2018-01-30T13:37:57.053Z,14.20
2018-01-30T13:40:28.914Z,13.30
2018-01-30T13:43:00.365Z,13.20
2018-01-30T13:45:30.406Z,13.30
2018-01-30T13:48:00.175Z,13.00
2018-01-30T13:50:29.587Z,12.50
2018-01-30T13:52:59.292Z,12.60
2018-01-30T13:55:29.696Z,11.90
2018-01-30T13:57:59.832Z,11.90
2018-01-30T14:00:30.458Z,11.90
2018-01-30T14:03:02.167Z,11.80
2018-01-30T14:05:33.274Z,11.70
2018-01-30T14:08:04.716Z,11.90
2018-01-30T14:10:34.137Z,11.90
2018-01-30T14:13:05.841Z,11.60
2018-01-30T14:15:35.383Z,11.60
2018-01-30T14:18:11.236Z,12.10
2018-01-30T14:20:41.742Z,12.30
2018-01-30T14:23:11.567Z,12.50
2018-01-30T14:25:41.254Z,12.60
2018-01-30T14:28:11.188Z,13.20
2018-01-30T14:30:43.693Z,13.30
2018-01-30T14:33:14.334Z,13.00
2018-01-30T14:35:44.873Z,12.90
2018-01-30T14:38:20.880Z,12.80
2018-01-30T14:40:57.000Z,12.70
2018-01-30T14:43:27.194Z,12.30
2018-01-30T14:45:58.758Z,11.10
2018-01-30T14:48:30.595Z,11.10
2018-01-30T14:51:05.542Z,10.80
2018-01-30T14:53:35.159Z,10.60
2018-01-30T14:56:05.748Z,10.00
2018-01-30T14:58:36.585Z,10.00
2018-01-30T15:01:07.604Z,9.90
2018-01-30T15:03:37.639Z,10.10
2018-01-30T15:06:07.097Z,10.30
2018-01-30T15:08:36.728Z,10.40
2018-01-30T15:11:07.193Z,10.30
2018-01-30T15:13:37.140Z,10.10
2018-01-30T15:16:07.597Z,9.90
2018-01-30T15:18:40.606Z,9.80
2018-01-30T15:21:10.429Z,9.70
2018-01-30T15:23:41.069Z,9.60
2018-01-30T15:26:14.004Z,9.70
2018-01-30T15:28:44.664Z,9.60
2018-01-30T15:31:21.141Z,9.70
2018-01-30T15:34:00.069Z,9.70
2018-01-30T15:36:29.986Z,9.50
2018-01-30T15:39:00.713Z,9.20
2018-01-30T15:41:30.641Z,9.20
2018-01-30T15:44:01.247Z,9.10
2018-01-30T15:46:32.539Z,9.00
2018-01-30T15:49:02.363Z,9.00
2018-01-30T15:51:32.668Z,8.90
2018-01-30T15:54:03.783Z,8.80
2018-01-30T15:56:34.316Z,9.10
2018-01-30T15:59:04.495Z,9.00
2018-01-30T16:01:34.045Z,9.00
2018-01-30T16:04:06.306Z,8.90
2018-01-30T16:06:39.437Z,8.90
2018-01-30T16:09:15.059Z,8.80
2018-01-30T16:11:50.534Z,8.80
2018-01-30T16:14:20.858Z,8.80
2018-01-30T16:16:52.340Z,9.10
2018-01-30T16:19:32.865Z,9.10
2018-01-30T16:22:03.468Z,9.00
2018-01-30T16:24:39.485Z,9.20
2018-01-30T16:27:10.882Z,9.30
2018-01-30T16:29:42.700Z,9.30
2018-01-30T16:32:21.911Z,9.30
2018-01-30T16:34:55.493Z,9.30
2018-01-30T16:37:29.028Z,9.40
2018-01-30T16:39:59.479Z,9.50
2018-01-30T16:42:32.570Z,9.60
2018-01-30T16:45:03.281Z,9.60
2018-01-30T16:47:32.967Z,9.60
2018-01-30T16:50:03.044Z,9.60
2018-01-30T16:52:34.171Z,9.60
2018-01-30T16:55:05.015Z,9.60
2018-01-30T16:57:35.264Z,9.60
2018-01-30T17:00:10.465Z,9.50
2018-01-30T17:02:42.565Z,9.30
2018-01-30T17:05:17.280Z,9.30
2018-01-30T17:07:53.606Z,9.20
2018-01-30T17:10:26.096Z,9.10
2018-01-30T17:13:05.735Z,9.10
2018-01-30T17:15:36.381Z,9.10
2018-01-30T17:18:06.000Z,9.10
2018-01-30T17:20:35.434Z,9.20
2018-01-30T17:23:06.247Z,9.30
2018-01-30T17:25:35.715Z,9.30
2018-01-30T17:28:05.518Z,9.40
2018-01-30T17:30:35.981Z,9.40
2018-01-30T17:33:05.617Z,9.30
2018-01-30T17:35:36.474Z,9.20
2018-01-30T17:38:10.172Z,9.10
2018-01-30T17:40:40.257Z,9.00
2018-01-30T17:43:10.436Z,9.00
2018-01-30T17:45:40.351Z,8.80
2018-01-30T17:48:09.801Z,8.80
2018-01-30T17:50:42.763Z,8.80
2018-01-30T17:53:13.291Z,8.70
2018-01-30T17:55:44.770Z,8.80
2018-01-30T17:58:14.889Z,8.80
2018-01-30T18:00:45.050Z,8.70
2018-01-30T18:03:14.921Z,8.70
2018-01-30T18:05:51.218Z,8.70
2018-01-30T18:08:33.180Z,8.80
2018-01-30T18:11:04.186Z,8.80
2018-01-30T18:13:42.378Z,8.70
2018-01-30T18:16:12.419Z,8.60
2018-01-30T18:18:43.645Z,8.80
2018-01-30T18:21:13.257Z,8.80
2018-01-30T18:23:43.131Z,8.70
2018-01-30T18:26:13.246Z,8.70
2018-01-30T18:28:42.913Z,8.70
2018-01-30T18:31:12.841Z,8.70
2018-01-30T18:33:42.571Z,8.70
2018-01-30T18:36:12.770Z,8.70
2018-01-30T18:39:20.791Z,8.70
2018-01-30T18:41:51.523Z,8.70
2018-01-30T18:44:27.913Z,8.70
2018-01-30T18:47:03.934Z,8.70
2018-01-30T18:49:33.795Z,8.70
2018-01-30T18:52:08.467Z,8.60
2018-01-30T18:54:46.045Z,8.50
2018-01-30T18:57:17.373Z,8.50
2018-01-30T18:59:55.563Z,8.50
2018-01-30T19:02:35.663Z,8.40
2018-01-30T19:05:07.719Z,8.40
2018-01-30T19:07:40.127Z,8.40
2018-01-30T19:10:10.617Z,8.40
2018-01-30T19:12:44.029Z,8.40
2018-01-30T19:15:21.827Z,8.40
2018-01-30T19:17:53.481Z,8.40
2018-01-30T19:20:24.853Z,8.40
2018-01-30T19:23:01.248Z,8.40
2018-01-30T19:25:36.714Z,8.40
2018-01-30T19:28:19.680Z,8.40
2018-01-30T19:31:03.073Z,8.40
2018-01-30T19:33:36.078Z,8.30
2018-01-30T19:36:13.056Z,8.20
2018-01-30T19:38:54.249Z,8.20
2018-01-30T19:41:27.167Z,8.20
2018-01-30T19:44:03.065Z,8.20
2018-01-30T19:46:33.551Z,8.20
2018-01-30T19:49:14.520Z,8.10
2018-01-30T19:52:04.056Z,8.00
2018-01-30T19:54:39.172Z,8.00
2018-01-30T19:57:10.922Z,7.90
2018-01-30T19:59:51.180Z,7.80
2018-01-30T20:02:25.281Z,7.70
2018-01-30T20:05:01.086Z,7.70
2018-01-30T20:07:30.926Z,7.70
2018-01-30T20:10:06.432Z,7.70
2018-01-30T20:12:51.487Z,7.70
2018-01-30T20:15:22.854Z,7.70
2018-01-30T20:17:54.890Z,7.70
2018-01-30T20:20:40.190Z,7.70
2018-01-30T20:23:29.529Z,7.70
2018-01-30T20:26:00.195Z,7.60
2018-01-30T20:28:31.878Z,7.50
2018-01-30T20:31:03.179Z,7.40
2018-01-30T20:33:34.123Z,7.50
2018-01-30T20:36:05.418Z,7.40
2018-01-30T20:38:36.423Z,7.30
2018-01-30T20:41:06.351Z,7.30
2018-01-30T20:43:40.712Z,7.20
2018-01-30T20:46:22.043Z,7.10
2018-01-30T20:49:03.006Z,7.00
2018-01-30T20:51:50.162Z,7.00
2018-01-30T20:54:21.248Z,7.00
2018-01-30T20:56:54.807Z,7.10
2018-01-30T20:59:26.889Z,7.20
2018-01-30T21:01:57.687Z,7.10
2018-01-30T21:04:27.451Z,7.10
2018-01-30T21:06:56.954Z,7.20
2018-01-30T21:09:38.161Z,7.20
2018-01-30T21:12:13.009Z,7.20
2018-01-30T21:14:44.392Z,7.00
2018-01-30T21:17:14.072Z,7.00
2018-01-30T21:19:44.565Z,6.90
2018-01-30T21:22:21.077Z,6.90
2018-01-30T21:24:51.294Z,6.80
2018-01-30T21:27:22.934Z,6.90
2018-01-30T21:29:53.269Z,7.00
2018-01-30T21:32:23.993Z,7.00
2018-01-30T21:34:55.243Z,7.00
2018-01-30T21:37:25.753Z,7.00
2018-01-30T21:39:56.973Z,7.10
2018-01-30T21:42:30.932Z,7.20
2018-01-30T21:45:09.051Z,7.20
2018-01-30T21:47:40.599Z,7.30
2018-01-30T21:50:11.382Z,7.50
2018-01-30T21:52:41.944Z,7.70
2018-01-30T21:55:11.825Z,7.80
2018-01-30T21:57:43.561Z,7.80
2018-01-30T22:00:15.869Z,7.70
2018-01-30T22:02:47.504Z,7.70
2018-01-30T22:05:24.661Z,7.70
2018-01-30T22:07:58.340Z,7.50
2018-01-30T22:10:38.849Z,7.40
2018-01-30T22:16:04.685Z,7.70
2018-01-30T22:18:40.765Z,7.60
2018-01-30T22:21:16.028Z,7.60
2018-01-30T22:23:56.186Z,7.60
2018-01-30T22:26:35.361Z,7.50
2018-01-30T22:29:07.779Z,7.50
2018-01-30T22:31:39.766Z,7.60
2018-01-30T22:34:13.353Z,7.70
2018-01-30T22:36:53.834Z,7.70
2018-01-30T22:39:34.493Z,7.70
2018-01-30T22:42:10.834Z,7.80
2018-01-30T22:44:48.021Z,7.90
